地図

経路データ

SID SEASON NUMBER BASIN SUBBASIN NAME ISO_TIME NATURE LAT LON WMO_WIND WMO_PRES WMO_AGENCY TRACK_TYPE DIST2LAND LANDFALL IFLAG USA_AGENCY USA_ATCF_ID USA_LAT USA_LON USA_RECORD USA_STATUS USA_WIND USA_PRES USA_SSHS USA_R34_NE USA_R34_SE USA_R34_SW USA_R34_NW USA_R50_NE USA_R50_SE USA_R50_SW USA_R50_NW USA_R64_NE USA_R64_SE USA_R64_SW USA_R64_NW USA_POCI USA_ROCI USA_RMW USA_EYE TOKYO_LAT TOKYO_LON TOKYO_GRADE TOKYO_WIND TOKYO_PRES TOKYO_R50_DIR TOKYO_R50_LONG TOKYO_R50_SHORT TOKYO_R30_DIR TOKYO_R30_LONG TOKYO_R30_SHORT TOKYO_LAND CMA_LAT CMA_LON CMA_CAT CMA_WIND CMA_PRES HKO_LAT HKO_LON HKO_CAT HKO_WIND HKO_PRES NEWDELHI_LAT NEWDELHI_LON NEWDELHI_GRADE NEWDELHI_WIND NEWDELHI_PRES NEWDELHI_CI NEWDELHI_DP NEWDELHI_POCI REUNION_LAT REUNION_LON REUNION_TYPE REUNION_WIND REUNION_PRES REUNION_TNUM REUNION_CI REUNION_RMW REUNION_R34_NE REUNION_R34_SE REUNION_R34_SW REUNION_R34_NW REUNION_R50_NE REUNION_R50_SE REUNION_R50_SW REUNION_R50_NW REUNION_R64_NE REUNION_R64_SE REUNION_R64_SW REUNION_R64_NW BOM_LAT BOM_LON BOM_TYPE BOM_WIND BOM_PRES BOM_TNUM BOM_CI BOM_RMW BOM_R34_NE BOM_R34_SE BOM_R34_SW BOM_R34_NW BOM_R50_NE BOM_R50_SE BOM_R50_SW BOM_R50_NW BOM_R64_NE BOM_R64_SE BOM_R64_SW BOM_R64_NW BOM_ROCI BOM_POCI BOM_EYE BOM_POS_METHOD BOM_PRES_METHOD NADI_LAT NADI_LON NADI_CAT NADI_WIND NADI_PRES WELLINGTON_LAT WELLINGTON_LON WELLINGTON_WIND WELLINGTON_PRES DS824_LAT DS824_LON DS824_STAGE DS824_WIND DS824_PRES TD9636_LAT TD9636_LON TD9636_STAGE TD9636_WIND TD9636_PRES TD9635_LAT TD9635_LON TD9635_WIND TD9635_PRES TD9635_ROCI NEUMANN_LAT NEUMANN_LON NEUMANN_CLASS NEUMANN_WIND NEUMANN_PRES MLC_LAT MLC_LON MLC_CLASS MLC_WIND MLC_PRES USA_GUST BOM_GUST BOM_GUST_PER REUNION_GUST REUNION_GUST_PER USA_SEAHGT USA_SEARAD_NE USA_SEARAD_SE USA_SEARAD_SW USA_SEARAD_NW STORM_SPEED STORM_DIR
1906239N20086 1906 28 NI BB NOT_NAMED 1906-08-27 00:00:00 TS 20.5000 86.0000 main 0 0 _________O____ -1 20.5000 86.0000 TC 30 2 319
1906239N20086 1906 28 NI BB NOT_NAMED 1906-08-27 03:00:00 TS 20.5667 85.9417 main 0 0 _________PO___ -1 20.6000 85.9125 TC 30 20.5000 86.0000 1 2 315
1906239N20086 1906 28 NI BB NOT_NAMED 1906-08-27 06:00:00 TS 20.6626 85.8239 main 0 0 _________OP___ -1 20.7000 85.8000 TC 30 20.6065 85.8597 1 3 309
1906239N20086 1906 28 NI BB NOT_NAMED 1906-08-27 09:00:00 TS 20.7616 85.6824 main 0 0 _________PP___ -1 20.8000 85.6500 TC 30 20.7103 85.7255 1 3 307
1906239N20086 1906 28 NI BB NOT_NAMED 1906-08-27 12:00:00 TS 20.8545 85.5517 main 0 0 _________OP___ -1 20.9000 85.5000 TC 30 20.8090 85.6035 1 3 311
1906239N20086 1906 28 NI BB NOT_NAMED 1906-08-27 15:00:00 TS 20.9500 85.4500 main 0 0 _________PO___ -1 21.0000 85.4000 TC 30 20.9000 85.5000 1 3 316
1906239N20086 1906 28 NI BB NOT_NAMED 1906-08-27 18:00:00 TS 21.0417 85.3576 main 0 0 _________OP___ -1 21.1000 85.3000 TC 30 20.9834 85.4152 1 3 314
1906239N20086 1906 28 NI BB NOT_NAMED 1906-08-27 21:00:00 TS 21.1271 85.2558 main 0 0 _________PP___ -1 21.1849 85.1873 TC 30 21.0694 85.3242 1 3 309
1906239N20086 1906 28 NI BB NOT_NAMED 1906-08-28 00:00:00 TS 21.2354 85.0981 main 0 0 _________OP___ -1 21.3000 85.0000 TC 30 21.1707 85.1962 1 5 305
1906239N20086 1906 28 NI BB NOT_NAMED 1906-08-28 03:00:00 TS 21.3925 84.8438 main 0 0 _________PO___ -1 21.4850 84.6876 TC 30 21.3000 85.0000 1 7 302
1906239N20086 1906 28 NI BB NOT_NAMED 1906-08-28 06:00:00 TS 21.5836 84.5086 main 0 0 _________OP___ -1 21.7000 84.3000 TC 30 21.4672 84.7172 1 8 301
1906239N20086 1906 28 NI BB NOT_NAMED 1906-08-28 09:00:00 TS 21.7774 84.1423 main 0 0 _________PP___ -1 21.8923 83.9223 TC 30 21.6624 84.3624 1 8 299
1906239N20086 1906 28 NI BB NOT_NAMED 1906-08-28 12:00:00 TS 21.9882 83.7257 main 0 0 _________OP___ -1 22.1000 83.5000 TC 30 21.8764 83.9514 1 9 299
1906239N20086 1906 28 NI BB NOT_NAMED 1906-08-28 15:00:00 TS 22.2250 83.2575 main 0 0 _________PO___ -1 22.3500 83.0150 TC 30 22.1000 83.5000 1 10 298
1906239N20086 1906 28 NI BB NOT_NAMED 1906-08-28 18:00:00 TS 22.4652 82.7600 main 0 0 _________OP___ -1 22.6000 82.5000 TC 30 22.3304 83.0201 1 10 296
1906239N20086 1906 28 NI BB NOT_NAMED 1906-08-28 21:00:00 TS 22.6903 82.2465 main 0 0 _________PP___ -1 22.8150 81.9849 TC 30 22.5655 82.5081 1 10 295
1906239N20086 1906 28 NI BB NOT_NAMED 1906-08-29 00:00:00 TS 22.8964 81.7460 main 0 0 _________OP___ -1 23.0000 81.5000 TC 30 22.7929 81.9919 1 10 294
1906239N20086 1906 28 NI BB NOT_NAMED 1906-08-29 03:00:00 TS 23.0786 81.2924 main 0 0 _________PO___ -1 23.1573 81.0848 TC 30 23.0000 81.5000 1 9 293
1906239N20086 1906 28 NI BB NOT_NAMED 1906-08-29 06:00:00 TS 23.2394 80.8873 main 0 0 _________OP___ -1 23.3000 80.7000 TC 30 23.1789 81.0747 1 8 293
1906239N20086 1906 28 NI BB NOT_NAMED 1906-08-29 09:00:00 TS 23.3969 80.4884 main 0 0 _________PP___ -1 23.4574 80.3000 TC 30 23.3365 80.6768 1 8 292
1906239N20086 1906 28 NI BB NOT_NAMED 1906-08-29 12:00:00 TS 23.5379 80.0952 main 0 0 _________OP___ -1 23.6000 79.9000 TC 30 23.4758 80.2905 1 8 290
1906239N20086 1906 28 NI BB NOT_NAMED 1906-08-29 15:00:00 TS 23.6537 79.7037 main 0 0 _________PO___ -1 23.7073 79.5074 TC 30 23.6000 79.9000 1 7 287
1906239N20086 1906 28 NI BB NOT_NAMED 1906-08-29 18:00:00 TS 23.7496 79.3245 main 0 0 _________OP___ -1 23.8000 79.1000 TC 30 23.7118 79.4929 1 8 285
1906239N20086 1906 28 NI BB NOT_NAMED 1906-08-29 21:00:00 TS 23.8474 78.9065 main 0 0 _________PP___ -1 23.8978 78.6602 TC 30 23.8138 79.0706 1 8 284
1906239N20086 1906 28 NI BB NOT_NAMED 1906-08-30 00:00:00 TS 23.9393 78.4920 main 0 0 _________OP___ -1 24.0000 78.2000 TC 30 23.9090 78.6380 1 7 283
1906239N20086 1906 28 NI BB NOT_NAMED 1906-08-30 03:00:00 NR 24.0000 78.2000 main 0 __________O___ -1 TC 24.0000 78.2000 1 5 283

IBTrACS Databaseについて

本データベースは、米国NOAAが公開する1842年以降の世界の熱帯低気圧のベストトラックデータアーカイブInternational Best Track Archive for Climate Stewardship (IBTrACS)を、ウェブで閲覧しやすい形式に変換したものです。

最終更新日:2021-10-25